createdAt,value
2018-08-04T00:00:14.642Z,20.60
2018-08-04T00:02:42.847Z,20.60
2018-08-04T00:05:11.431Z,20.50
2018-08-04T00:07:40.038Z,20.50
2018-08-04T00:10:15.011Z,20.50
2018-08-04T00:12:43.236Z,20.40
2018-08-04T00:15:11.449Z,20.40
2018-08-04T00:17:39.667Z,20.30
2018-08-04T00:20:07.879Z,20.30
2018-08-04T00:22:36.098Z,20.30
2018-08-04T00:25:04.543Z,20.20
2018-08-04T00:27:32.768Z,20.10
2018-08-04T00:30:01.028Z,20.00
2018-08-04T00:32:29.247Z,20.00
2018-08-04T00:34:57.443Z,20.00
2018-08-04T00:39:53.646Z,19.90
2018-08-04T00:42:21.862Z,19.80
2018-08-04T00:44:50.085Z,19.80
2018-08-04T00:47:18.294Z,19.70
2018-08-04T00:49:46.566Z,19.70
2018-08-04T00:52:14.764Z,19.60
2018-08-04T00:54:42.975Z,19.60
2018-08-04T00:57:11.198Z,19.50
2018-08-04T00:59:39.423Z,19.50
2018-08-04T01:02:07.636Z,19.60
2018-08-04T01:04:35.855Z,19.50
2018-08-04T01:07:04.062Z,19.50
2018-08-04T01:09:32.298Z,19.40
2018-08-04T01:12:00.492Z,19.40
2018-08-04T01:14:28.697Z,19.50
2018-08-04T01:16:56.889Z,19.50
2018-08-04T01:19:25.146Z,19.40
2018-08-04T01:21:53.372Z,19.40
2018-08-04T01:24:21.586Z,19.50
2018-08-04T01:26:49.791Z,19.50
2018-08-04T01:29:18.011Z,19.50
2018-08-04T01:31:46.219Z,19.40
2018-08-04T01:34:14.435Z,19.40
2018-08-04T01:36:42.634Z,19.30
2018-08-04T01:39:11.515Z,19.30
2018-08-04T01:41:39.923Z,19.20
2018-08-04T01:44:08.146Z,19.10
2018-08-04T01:46:36.351Z,19.10
2018-08-04T01:49:04.575Z,19.10
2018-08-04T01:51:32.774Z,19.10
2018-08-04T01:54:01.036Z,19.10
2018-08-04T01:56:29.243Z,19.10
2018-08-04T01:58:57.451Z,19.10
2018-08-04T02:01:25.655Z,19.10
2018-08-04T02:03:54.037Z,19.10
2018-08-04T02:06:22.232Z,19.10
2018-08-04T02:08:50.459Z,19.10
2018-08-04T02:11:18.675Z,19.00
2018-08-04T02:13:46.923Z,19.10
2018-08-04T02:16:15.127Z,19.00
2018-08-04T02:18:43.334Z,19.10
2018-08-04T02:21:11.550Z,19.00
2018-08-04T02:23:39.791Z,19.00
2018-08-04T02:26:08.001Z,19.00
2018-08-04T02:28:36.243Z,18.90
2018-08-04T02:31:04.467Z,18.90
2018-08-04T02:33:32.670Z,18.90
2018-08-04T02:36:00.889Z,18.90
2018-08-04T02:38:29.095Z,18.80
2018-08-04T02:40:57.336Z,18.80
2018-08-04T02:43:25.532Z,18.90
2018-08-04T02:45:53.761Z,18.90
2018-08-04T02:50:49.962Z,18.90
2018-08-04T02:53:18.156Z,18.80
2018-08-04T02:55:46.380Z,18.70
2018-08-04T02:58:14.579Z,18.70
2018-08-04T03:00:42.796Z,18.70
2018-08-04T03:05:38.994Z,18.60
2018-08-04T03:08:07.216Z,18.60
2018-08-04T03:10:35.442Z,18.50
2018-08-04T03:13:03.651Z,18.50
2018-08-04T03:15:31.856Z,18.50
2018-08-04T03:18:00.056Z,18.60
2018-08-04T03:20:28.274Z,18.70
2018-08-04T03:25:24.535Z,18.60
2018-08-04T03:27:52.738Z,18.60
2018-08-04T03:30:22.505Z,18.60
2018-08-04T03:32:50.710Z,18.60
2018-08-04T03:35:18.960Z,18.50
2018-08-04T03:37:47.160Z,18.50
2018-08-04T03:40:15.390Z,18.50
2018-08-04T03:42:43.603Z,18.50
2018-08-04T03:45:11.834Z,18.50
2018-08-04T03:47:40.050Z,18.50
2018-08-04T03:50:08.264Z,18.50
2018-08-04T03:52:36.474Z,18.40
2018-08-04T03:55:04.706Z,18.40
2018-08-04T03:57:32.915Z,18.40
2018-08-04T04:00:01.140Z,18.30
2018-08-04T04:02:29.354Z,18.30
2018-08-04T04:04:57.589Z,18.30
2018-08-04T04:07:25.803Z,18.30
2018-08-04T04:09:54.039Z,18.30
2018-08-04T04:12:22.238Z,18.30
2018-08-04T04:14:50.479Z,18.40
2018-08-04T04:17:18.698Z,18.30
2018-08-04T04:19:46.906Z,18.40
2018-08-04T04:22:15.127Z,18.40
2018-08-04T04:24:43.339Z,18.50
2018-08-04T04:29:39.698Z,18.50
2018-08-04T04:32:08.348Z,18.60
2018-08-04T04:34:36.547Z,18.70
2018-08-04T04:37:04.851Z,18.70
2018-08-04T04:39:33.065Z,18.80
2018-08-04T04:42:01.303Z,18.80
2018-08-04T04:44:29.500Z,18.90
2018-08-04T04:46:57.710Z,18.90
2018-08-04T04:51:53.874Z,19.20
2018-08-04T04:54:22.084Z,19.30
2018-08-04T04:56:50.290Z,19.40
2018-08-04T04:59:18.467Z,19.50
2018-08-04T05:04:14.675Z,19.60
2018-08-04T05:06:42.910Z,19.70
2018-08-04T05:09:11.111Z,19.80
2018-08-04T05:11:39.422Z,19.90
2018-08-04T05:14:08.490Z,19.80
2018-08-04T05:16:36.716Z,19.90
2018-08-04T05:19:04.951Z,19.90
2018-08-04T05:21:33.224Z,20.00
2018-08-04T05:24:01.395Z,20.10
2018-08-04T05:26:29.615Z,20.20
2018-08-04T05:28:57.850Z,20.30
2018-08-04T05:31:26.075Z,20.40
2018-08-04T05:33:54.400Z,20.50
2018-08-04T05:36:23.003Z,20.60
2018-08-04T05:38:51.212Z,20.70
2018-08-04T05:41:19.476Z,20.70
2018-08-04T05:43:47.703Z,20.90
2018-08-04T05:46:15.922Z,20.90
2018-08-04T05:48:44.150Z,21.10
2018-08-04T05:51:12.379Z,21.20
2018-08-04T05:53:40.582Z,21.30
2018-08-04T05:56:08.812Z,21.50
2018-08-04T05:58:37.023Z,21.60
2018-08-04T06:01:05.257Z,21.70
2018-08-04T06:03:33.459Z,21.80
2018-08-04T06:06:01.670Z,21.90
2018-08-04T06:08:29.881Z,22.10
2018-08-04T06:10:58.160Z,22.10
2018-08-04T06:13:26.371Z,22.40
2018-08-04T06:15:54.574Z,22.50
2018-08-04T06:18:22.803Z,22.60
2018-08-04T06:20:51.027Z,22.70
2018-08-04T06:23:19.246Z,22.90
2018-08-04T06:25:47.457Z,23.00
2018-08-04T06:28:15.837Z,23.20
2018-08-04T06:30:44.072Z,23.30
2018-08-04T06:33:12.295Z,23.50
2018-08-04T06:35:40.524Z,23.60
2018-08-04T06:38:08.750Z,23.70
2018-08-04T06:40:36.947Z,23.90
2018-08-04T06:43:05.249Z,24.00
2018-08-04T06:45:33.457Z,24.20
2018-08-04T06:48:01.687Z,24.40
2018-08-04T06:50:29.915Z,24.50
2018-08-04T06:52:58.139Z,24.60
2018-08-04T06:55:26.339Z,24.70
2018-08-04T06:57:54.558Z,24.90
2018-08-04T07:00:22.787Z,25.10
2018-08-04T07:02:51.018Z,25.20
2018-08-04T07:05:19.222Z,25.40
2018-08-04T07:07:47.949Z,25.60
2018-08-04T07:10:16.256Z,25.80
2018-08-04T07:12:44.551Z,26.00
2018-08-04T07:15:12.773Z,26.20
2018-08-04T07:17:41.006Z,26.50
2018-08-04T07:20:09.235Z,26.80
2018-08-04T07:25:05.466Z,27.90
2018-08-04T07:27:33.689Z,28.70
2018-08-04T07:30:01.895Z,30.00
2018-08-04T07:32:30.114Z,32.30
2018-08-04T07:34:58.362Z,35.60
2018-08-04T07:37:26.659Z,38.40
2018-08-04T07:39:54.908Z,40.70
2018-08-04T07:42:23.216Z,42.10
2018-08-04T07:44:51.515Z,43.30
2018-08-04T07:47:19.731Z,44.40
2018-08-04T07:49:47.993Z,45.10
2018-08-04T07:52:16.223Z,45.70
2018-08-04T07:54:44.454Z,45.80
2018-08-04T07:57:12.704Z,45.60
2018-08-04T07:59:40.924Z,46.10
2018-08-04T08:02:09.156Z,45.90
2018-08-04T08:04:37.392Z,46.00
2018-08-04T08:07:05.622Z,46.40
2018-08-04T08:09:33.864Z,46.60
2018-08-04T08:12:02.062Z,47.00
2018-08-04T08:14:30.305Z,47.60
2018-08-04T08:16:58.526Z,48.00
2018-08-04T08:19:26.772Z,48.20
2018-08-04T08:21:54.974Z,48.10
2018-08-04T08:24:23.202Z,47.90
2018-08-04T08:26:51.443Z,47.70
2018-08-04T08:29:19.689Z,47.80
2018-08-04T08:31:47.893Z,48.10
2018-08-04T08:34:16.123Z,47.90
2018-08-04T08:36:44.350Z,48.10
2018-08-04T08:39:12.615Z,48.20
2018-08-04T08:41:40.815Z,48.70
2018-08-04T08:44:09.067Z,48.90
2018-08-04T08:46:37.283Z,49.40
2018-08-04T08:49:05.575Z,49.50
2018-08-04T08:51:33.806Z,48.50
2018-08-04T08:54:02.155Z,47.40
2018-08-04T08:56:30.266Z,47.30
2018-08-04T08:58:58.518Z,47.50
2018-08-04T09:01:26.828Z,48.00
2018-08-04T09:03:54.991Z,48.30
2018-08-04T09:06:23.205Z,48.20
2018-08-04T09:08:51.450Z,48.30
2018-08-04T09:11:19.671Z,48.80
2018-08-04T09:13:47.883Z,48.70
2018-08-04T09:16:16.109Z,48.30
2018-08-04T09:18:44.342Z,48.50
2018-08-04T09:21:12.558Z,48.80
2018-08-04T09:23:40.792Z,48.10
2018-08-04T09:26:09.053Z,47.00
2018-08-04T09:28:37.299Z,45.30
2018-08-04T09:31:05.522Z,44.10
2018-08-04T09:33:34.541Z,43.80
2018-08-04T09:38:30.749Z,44.70
2018-08-04T09:40:58.956Z,44.00
2018-08-04T09:43:27.163Z,43.40
2018-08-04T09:45:55.387Z,43.80
2018-08-04T09:48:23.618Z,44.20
2018-08-04T09:50:51.843Z,44.50
2018-08-04T09:53:20.063Z,44.70
2018-08-04T09:55:48.274Z,44.60
2018-08-04T09:58:20.127Z,44.40
2018-08-04T10:00:53.566Z,44.20
2018-08-04T10:03:21.766Z,43.80
2018-08-04T10:05:49.982Z,43.70
2018-08-04T10:08:18.192Z,43.30
2018-08-04T10:10:46.455Z,42.90
2018-08-04T10:13:14.663Z,41.70
2018-08-04T10:15:42.896Z,42.10
2018-08-04T10:18:11.135Z,42.40
2018-08-04T10:20:39.354Z,42.40
2018-08-04T10:23:07.566Z,41.00
2018-08-04T10:25:35.802Z,40.10
2018-08-04T10:28:04.036Z,39.20
2018-08-04T10:30:32.281Z,38.40
2018-08-04T10:33:00.475Z,38.00
2018-08-04T10:35:28.694Z,37.90
2018-08-04T10:37:56.900Z,37.80
2018-08-04T10:40:25.119Z,37.50
2018-08-04T10:42:53.316Z,37.20
2018-08-04T10:45:21.557Z,37.00
2018-08-04T10:47:49.776Z,36.90
2018-08-04T10:50:17.988Z,36.40
2018-08-04T10:52:46.183Z,36.00
2018-08-04T10:55:14.412Z,35.70
2018-08-04T11:02:39.008Z,35.80
2018-08-04T11:05:07.696Z,36.10
2018-08-04T11:07:35.932Z,36.60
2018-08-04T11:10:04.815Z,36.90
2018-08-04T11:12:33.066Z,37.30
2018-08-04T11:17:29.267Z,37.20
2018-08-04T11:19:57.587Z,37.10
2018-08-04T11:22:25.807Z,37.10
2018-08-04T11:24:54.034Z,37.30
2018-08-04T11:27:22.241Z,37.50
2018-08-04T11:29:50.495Z,37.20
2018-08-04T11:32:18.702Z,36.90
2018-08-04T11:34:46.928Z,36.90
2018-08-04T11:37:15.135Z,36.60
2018-08-04T11:39:43.366Z,36.40
2018-08-04T11:44:39.606Z,35.90
2018-08-04T11:47:07.819Z,35.80
2018-08-04T11:49:36.032Z,35.70
2018-08-04T11:52:04.276Z,35.70
2018-08-04T11:54:32.483Z,35.90
2018-08-04T11:57:00.706Z,36.00
2018-08-04T11:59:28.927Z,36.00
2018-08-04T12:01:57.182Z,35.90
2018-08-04T12:04:25.411Z,35.70
2018-08-04T12:06:53.643Z,35.60
2018-08-04T12:09:21.871Z,35.60
2018-08-04T12:11:50.109Z,35.60
2018-08-04T12:16:46.310Z,35.40
2018-08-04T12:19:14.512Z,35.70
2018-08-04T12:21:42.744Z,35.90
2018-08-04T12:24:10.966Z,35.90
2018-08-04T12:26:39.199Z,35.80
2018-08-04T12:29:07.438Z,35.90
2018-08-04T12:31:35.669Z,36.00
2018-08-04T12:34:05.778Z,35.90
2018-08-04T12:36:34.011Z,35.80
2018-08-04T12:39:02.228Z,35.90
2018-08-04T12:41:30.472Z,36.20
2018-08-04T12:43:58.703Z,36.50
2018-08-04T12:46:26.942Z,36.40
2018-08-04T12:48:55.140Z,36.40
2018-08-04T12:51:23.383Z,36.20
2018-08-04T12:53:51.570Z,36.20
2018-08-04T12:56:19.799Z,36.10
2018-08-04T12:58:48.008Z,36.00
2018-08-04T13:01:16.335Z,35.90
2018-08-04T13:03:44.554Z,35.80
2018-08-04T13:06:12.782Z,35.80
2018-08-04T13:08:41.060Z,35.60
2018-08-04T13:11:09.264Z,35.60
2018-08-04T13:13:37.463Z,35.70
2018-08-04T13:16:05.687Z,35.60
2018-08-04T13:18:33.884Z,35.60
2018-08-04T13:21:02.118Z,35.80
2018-08-04T13:23:30.323Z,36.10
2018-08-04T13:25:58.552Z,36.30
2018-08-04T13:28:26.778Z,36.40
2018-08-04T13:30:55.010Z,36.20
2018-08-04T13:33:23.222Z,36.00
2018-08-04T13:35:51.427Z,36.00
2018-08-04T13:40:48.817Z,36.00
2018-08-04T13:43:17.048Z,35.90
2018-08-04T13:45:45.243Z,35.80
2018-08-04T13:48:13.479Z,35.70
2018-08-04T13:50:41.707Z,35.50
2018-08-04T13:53:09.951Z,35.30
2018-08-04T13:55:38.156Z,35.10
2018-08-04T13:58:06.500Z,34.90
2018-08-04T14:00:34.691Z,34.60
2018-08-04T14:03:02.919Z,34.50
2018-08-04T14:05:31.125Z,34.60
2018-08-04T14:07:59.371Z,34.70
2018-08-04T14:10:27.629Z,34.60
2018-08-04T14:15:23.830Z,34.30
2018-08-04T14:17:52.039Z,34.50
2018-08-04T14:20:20.278Z,34.50
2018-08-04T14:22:48.546Z,34.60
2018-08-04T14:25:16.718Z,34.50
2018-08-04T14:27:44.937Z,34.00
2018-08-04T14:30:13.143Z,33.90
2018-08-04T14:32:41.363Z,33.70
2018-08-04T14:35:09.594Z,33.40
2018-08-04T14:37:37.836Z,33.10
2018-08-04T14:40:06.122Z,32.90
2018-08-04T14:42:34.367Z,32.70
2018-08-04T14:45:02.597Z,32.70
2018-08-04T14:47:30.844Z,32.90
2018-08-04T14:52:27.094Z,33.50
2018-08-04T14:54:55.308Z,33.70
2018-08-04T14:57:23.538Z,33.90
2018-08-04T14:59:51.772Z,33.80
2018-08-04T15:02:19.995Z,33.90
2018-08-04T15:04:48.250Z,33.90
2018-08-04T15:07:16.506Z,34.00
2018-08-04T15:09:44.844Z,34.10
2018-08-04T15:12:13.126Z,34.40
2018-08-04T15:14:41.344Z,34.50
2018-08-04T15:17:09.582Z,34.50
2018-08-04T15:19:37.800Z,34.60
2018-08-04T15:22:06.075Z,34.60
2018-08-04T15:24:34.326Z,34.60
2018-08-04T15:27:02.592Z,34.70
2018-08-04T15:29:30.815Z,34.60
2018-08-04T15:31:59.075Z,34.40
2018-08-04T15:34:27.303Z,34.20
2018-08-04T15:36:55.526Z,34.10
2018-08-04T15:39:23.738Z,34.00
2018-08-04T15:41:51.970Z,33.80
2018-08-04T15:44:20.574Z,33.70
2018-08-04T15:46:48.786Z,33.60
2018-08-04T15:49:16.998Z,33.60
2018-08-04T15:51:45.213Z,33.70
2018-08-04T15:54:13.433Z,33.60
2018-08-04T15:56:41.685Z,33.60
2018-08-04T15:59:10.122Z,33.40
2018-08-04T16:01:38.354Z,33.10
2018-08-04T16:04:07.644Z,32.80
2018-08-04T16:06:35.894Z,32.60
2018-08-04T16:09:06.226Z,32.40
2018-08-04T16:11:34.438Z,32.20
2018-08-04T16:14:02.650Z,32.00
2018-08-04T16:16:30.865Z,31.90
2018-08-04T16:18:59.086Z,31.70
2018-08-04T16:21:27.299Z,31.70
2018-08-04T16:23:55.627Z,31.70
2018-08-04T16:26:23.847Z,31.80
2018-08-04T16:28:52.088Z,31.70
2018-08-04T16:31:20.302Z,31.70
2018-08-04T16:33:48.599Z,31.70
2018-08-04T16:36:16.790Z,31.80
2018-08-04T16:38:45.009Z,31.90
2018-08-04T16:41:13.223Z,31.90
2018-08-04T16:43:41.443Z,31.80
2018-08-04T16:46:09.663Z,31.60
2018-08-04T16:48:37.910Z,31.70
2018-08-04T16:51:06.153Z,31.80
2018-08-04T16:53:34.375Z,31.90
2018-08-04T16:56:02.574Z,31.90
2018-08-04T16:58:30.795Z,31.90
2018-08-04T17:00:59.004Z,32.00
2018-08-04T17:03:27.231Z,31.90
2018-08-04T17:05:55.463Z,31.80
2018-08-04T17:08:23.686Z,31.70
2018-08-04T17:10:51.920Z,31.70
2018-08-04T17:13:20.282Z,31.50
2018-08-04T17:15:48.494Z,31.50
2018-08-04T17:18:17.495Z,31.40
2018-08-04T17:20:45.599Z,31.30
2018-08-04T17:23:13.868Z,31.30
2018-08-04T17:25:42.116Z,31.30
2018-08-04T17:28:10.349Z,31.20
2018-08-04T17:30:38.633Z,31.10
2018-08-04T17:33:06.830Z,30.90
2018-08-04T17:35:35.114Z,30.90
2018-08-04T17:38:03.315Z,30.80
2018-08-04T17:40:31.574Z,30.70
2018-08-04T17:42:59.782Z,30.60
2018-08-04T17:45:27.995Z,30.50
2018-08-04T17:47:56.208Z,30.50
2018-08-04T17:50:24.426Z,30.30
2018-08-04T17:52:52.623Z,30.30
2018-08-04T17:55:20.840Z,30.20
2018-08-04T17:57:49.055Z,30.10
2018-08-04T18:00:18.262Z,30.00
2018-08-04T18:02:46.476Z,30.00
2018-08-04T18:05:14.691Z,29.80
2018-08-04T18:07:42.903Z,29.60
2018-08-04T18:10:11.139Z,29.50
2018-08-04T18:12:39.433Z,29.30
2018-08-04T18:17:35.867Z,29.10
2018-08-04T18:20:04.432Z,28.90
2018-08-04T18:22:32.650Z,28.60
2018-08-04T18:25:00.881Z,28.40
2018-08-04T18:27:29.088Z,28.30
2018-08-04T18:32:25.317Z,27.90
2018-08-04T18:34:53.559Z,27.80
2018-08-04T18:37:21.766Z,27.70
2018-08-04T18:39:49.996Z,27.50
2018-08-04T18:42:18.263Z,27.50
2018-08-04T18:44:46.579Z,27.50
2018-08-04T18:47:14.750Z,27.50
2018-08-04T18:49:43.068Z,27.40
2018-08-04T18:52:11.265Z,27.30
2018-08-04T18:54:39.492Z,27.20
2018-08-04T18:57:07.760Z,27.00
2018-08-04T18:59:36.536Z,26.90
2018-08-04T19:02:04.754Z,26.80
2018-08-04T19:04:32.978Z,26.70
2018-08-04T19:07:01.184Z,26.70
2018-08-04T19:09:29.431Z,26.60
2018-08-04T19:11:57.645Z,26.50
2018-08-04T19:14:25.888Z,26.40
2018-08-04T19:16:54.107Z,26.40
2018-08-04T19:19:22.348Z,26.30
2018-08-04T19:21:50.584Z,26.20
2018-08-04T19:24:18.792Z,26.20
2018-08-04T19:26:47.028Z,26.10
2018-08-04T19:29:15.235Z,26.00
2018-08-04T19:31:43.447Z,26.00
2018-08-04T19:34:11.663Z,25.90
2018-08-04T19:36:39.879Z,25.90
2018-08-04T19:39:08.883Z,25.90
2018-08-04T19:41:37.121Z,25.80
2018-08-04T19:44:05.634Z,25.70
2018-08-04T19:46:33.842Z,25.60
2018-08-04T19:49:02.156Z,25.50
2018-08-04T19:51:30.511Z,25.50
2018-08-04T19:53:58.733Z,25.40
2018-08-04T19:56:26.963Z,25.30
2018-08-04T19:58:55.186Z,25.30
2018-08-04T20:01:23.387Z,25.20
2018-08-04T20:03:52.179Z,25.20
2018-08-04T20:06:20.424Z,25.20
2018-08-04T20:08:48.931Z,25.20
2018-08-04T20:11:17.202Z,25.10
2018-08-04T20:13:45.512Z,25.10
2018-08-04T20:16:13.751Z,25.10
2018-08-04T20:18:42.145Z,25.10
2018-08-04T20:21:10.361Z,25.10
2018-08-04T20:23:38.707Z,25.10
2018-08-04T20:26:06.927Z,25.10
2018-08-04T20:28:35.146Z,25.20
2018-08-04T20:31:03.363Z,25.20
2018-08-04T20:35:59.570Z,25.30
2018-08-04T20:38:27.988Z,25.30
2018-08-04T20:40:56.220Z,25.30
2018-08-04T20:43:24.417Z,25.20
2018-08-04T20:45:52.770Z,25.10
2018-08-04T20:48:21.126Z,25.10
2018-08-04T20:50:51.391Z,25.00
2018-08-04T20:53:19.672Z,25.00
2018-08-04T20:55:47.894Z,25.00
2018-08-04T20:58:16.181Z,24.90
2018-08-04T21:00:54.424Z,25.00
2018-08-04T21:03:22.615Z,24.90
2018-08-04T21:05:50.837Z,24.80
2018-08-04T21:08:19.048Z,24.70
2018-08-04T21:10:47.290Z,24.70
2018-08-04T21:13:15.493Z,24.60
2018-08-04T21:15:43.724Z,24.60
2018-08-04T21:18:11.947Z,24.50
2018-08-04T21:20:40.187Z,24.40
2018-08-04T21:23:08.400Z,24.40
2018-08-04T21:25:36.606Z,24.30
2018-08-04T21:28:04.894Z,24.30
2018-08-04T21:30:33.085Z,24.30
2018-08-04T21:33:01.341Z,24.20
2018-08-04T21:35:29.586Z,24.20
2018-08-04T21:37:57.931Z,24.10
2018-08-04T21:40:26.154Z,24.10
2018-08-04T21:42:54.491Z,24.00
2018-08-04T21:45:22.747Z,23.90
2018-08-04T21:47:50.967Z,23.90
2018-08-04T21:50:19.183Z,23.70
2018-08-04T21:52:47.407Z,23.60
2018-08-04T21:55:15.616Z,23.50
2018-08-04T21:57:43.835Z,23.40
2018-08-04T22:00:13.370Z,23.40
2018-08-04T22:02:52.583Z,23.40
2018-08-04T22:05:20.798Z,23.30
2018-08-04T22:08:00.797Z,23.20
2018-08-04T22:10:29.058Z,23.20
2018-08-04T22:12:57.686Z,23.10
2018-08-04T22:15:26.339Z,23.00
2018-08-04T22:17:54.582Z,22.90
2018-08-04T22:20:23.268Z,22.80
2018-08-04T22:22:51.528Z,22.80
2018-08-04T22:25:20.843Z,22.90
2018-08-04T22:27:50.318Z,23.00
2018-08-04T22:30:19.779Z,23.00
2018-08-04T22:32:48.452Z,22.90
2018-08-04T22:35:16.708Z,22.80
2018-08-04T22:37:44.953Z,22.60
2018-08-04T22:40:14.227Z,22.50
2018-08-04T22:42:42.799Z,22.40
2018-08-04T22:46:21.535Z,22.30
2018-08-04T22:48:51.023Z,22.30
2018-08-04T22:51:23.098Z,22.10
2018-08-04T22:56:19.602Z,22.00
2018-08-04T22:58:47.825Z,22.00
2018-08-04T23:01:16.046Z,21.90
2018-08-04T23:06:12.511Z,21.90
2018-08-04T23:08:40.726Z,21.90
2018-08-04T23:11:08.943Z,21.80
2018-08-04T23:13:37.156Z,21.80
2018-08-04T23:16:05.391Z,21.70
2018-08-04T23:18:33.603Z,21.80
2018-08-04T23:21:01.799Z,21.70
2018-08-04T23:25:57.990Z,21.70
2018-08-04T23:28:26.195Z,21.70
2018-08-04T23:30:54.394Z,21.70
2018-08-04T23:35:50.595Z,21.60
2018-08-04T23:38:18.814Z,21.50
2018-08-04T23:40:47.026Z,21.50
2018-08-04T23:43:15.305Z,21.50
2018-08-04T23:45:43.523Z,21.40
2018-08-04T23:48:11.735Z,21.40
2018-08-04T23:50:39.926Z,21.40
2018-08-04T23:53:08.319Z,21.40
2018-08-04T23:55:36.519Z,21.40
2018-08-04T23:58:04.907Z,21.40
